Terminal Aerodrome Forecast
Issued by NWS Wilmington, OH

Home | Current Version | Previous Version | Text Only | Print | Product List | Glossary On
Versions: 1 2 3 4 5 6 7 8 9 10 11 12 13 14 15 16 17 18 19
000
FTUS41 KILN 231219 AAB
TAFILN
TAF AMD
KILN 231219Z 2312/2412 22014G20KT 5SM SHRA BR OVC015
      TEMPO 2312/2316 3SM SHRA BR OVC009
     FM232100 23009KT P6SM -SHRA OVC018
     FM240100 30009KT P6SM VCSH BKN018
     FM240500 29006KT P6SM SKC=

USA.gov is the U.S. government's official web portal to all federal, state and local government web resources and services.